Time;durP1;ratioP1;P1;durP2;ratioP2;P2;SDS_P1;SDS_P2;PMS_P1;PMS_P2;Temp;Humidity;BMP_temperature;BMP_pressure;BME280_temperature;BME280_humidity;BME280_pressure;Samples;Min_cycle;Max_cycle;Signal;HPM_P1;HPM_P2
2022/12/27 00:02:23;;;;;;;1.43;1.33;;;6.10;99.90;;;;;;5035101;28;20591;-69
2022/12/27 00:04:49;;;;;;;2.60;1.30;;;6.10;99.90;;;;;;5035203;28;20167;-68
2022/12/27 00:07:14;;;;;;;1.53;1.33;;;6.00;99.90;;;;;;5035097;28;20522;-68
2022/12/27 00:09:40;;;;;;;3.93;1.40;;;6.00;99.90;;;;;;5034835;28;20520;-68
2022/12/27 00:12:06;;;;;;;4.37;2.17;;;5.90;99.90;;;;;;5034802;28;20593;-68
2022/12/27 00:14:32;;;;;;;2.80;1.33;;;5.90;99.90;;;;;;5035301;28;20276;-71
2022/12/27 00:16:58;;;;;;;1.70;1.30;;;5.90;99.90;;;;;;5034804;28;20460;-70
2022/12/27 00:19:23;;;;;;;6.27;1.40;;;5.90;99.90;;;;;;5034559;28;20174;-70
2022/12/27 00:21:49;;;;;;;4.10;1.33;;;5.80;99.90;;;;;;5034771;28;20202;-70
2022/12/27 00:24:14;;;;;;;2.90;1.70;;;5.70;99.90;;;;;;5034752;28;20663;-71
2022/12/27 00:26:40;;;;;;;2.17;1.40;;;5.70;99.90;;;;;;5034797;28;20257;-71
2022/12/27 00:29:06;;;;;;;3.00;1.47;;;5.60;99.90;;;;;;5033797;28;20173;-71
2022/12/27 00:31:32;;;;;;;2.33;1.30;;;5.60;99.90;;;;;;5034631;28;20186;-71
2022/12/27 00:34:02;;;;;;;2.13;1.40;;;5.60;99.90;;;;;;5034579;28;20277;-71
2022/12/27 00:36:29;;;;;;;1.20;1.10;;;5.60;99.90;;;;;;5034508;28;20456;-71
2022/12/27 00:38:56;;;;;;;4.70;2.03;;;5.50;99.90;;;;;;5034234;28;20865;-71
2022/12/27 00:41:22;;;;;;;9.37;1.60;;;5.50;99.90;;;;;;5034522;28;20453;-72
2022/12/27 00:43:48;;;;;;;1.20;1.10;;;5.50;99.90;;;;;;5034262;28;20527;-72
2022/12/27 00:46:14;;;;;;;1.43;1.33;;;5.50;99.90;;;;;;5034553;28;20983;-72
2022/12/27 00:48:39;;;;;;;2.20;1.30;;;5.30;99.90;;;;;;5034106;28;20432;-70
2022/12/27 00:51:16;;;;;;;3.70;1.30;;;5.30;99.90;;;;;;5034221;28;20232;-70
2022/12/27 00:53:41;;;;;;;1.70;1.40;;;5.20;99.90;;;;;;5034245;28;20224;-70
2022/12/27 00:56:09;;;;;;;1.43;0.97;;;5.20;99.90;;;;;;5034254;28;20425;-70
2022/12/27 00:58:36;;;;;;;1.60;1.43;;;5.10;99.90;;;;;;5033820;28;20251;-70
2022/12/27 01:01:11;;;;;;;2.23;1.40;;;5.10;99.90;;;;;;5034061;28;20421;-70
2022/12/27 01:03:37;;;;;;;1.03;1.00;;;5.00;99.90;;;;;;5033941;28;20448;-70
2022/12/27 01:06:27;;;;;;;1.30;1.07;;;5.00;99.90;;;;;;5016231;28;20652;-70
2022/12/27 01:08:53;;;;;;;1.67;1.30;;;4.90;99.90;;;;;;5033626;28;20504;-70
2022/12/27 01:11:19;;;;;;;1.80;1.13;;;4.90;99.90;;;;;;5033756;28;20464;-70
2022/12/27 01:13:45;;;;;;;2.27;1.03;;;4.90;99.90;;;;;;5033824;28;20852;-70
2022/12/27 01:16:17;;;;;;;1.10;1.00;;;4.80;99.90;;;;;;5033760;28;20581;-70
2022/12/27 01:18:43;;;;;;;6.43;1.00;;;4.80;99.90;;;;;;5033366;28;20469;-70
2022/12/27 01:21:12;;;;;;;1.10;1.00;;;4.80;99.90;;;;;;5033663;28;20500;-70
2022/12/27 01:23:38;;;;;;;3.53;1.27;;;4.70;99.90;;;;;;5033514;28;21000;-70
2022/12/27 01:26:07;;;;;;;1.97;0.90;;;4.70;99.90;;;;;;5033679;28;20425;-70
2022/12/27 01:28:34;;;;;;;4.97;1.10;;;4.60;99.90;;;;;;5033240;28;20439;-70
2022/12/27 01:31:08;;;;;;;3.33;1.10;;;4.60;99.90;;;;;;5033544;28;20517;-70
2022/12/27 01:33:33;;;;;;;3.43;1.00;;;4.60;99.90;;;;;;5033389;28;20445;-70
2022/12/27 01:36:17;;;;;;;1.13;1.03;;;4.60;99.90;;;;;;5033374;28;20431;-70
2022/12/27 01:38:43;;;;;;;2.00;1.63;;;4.60;99.90;;;;;;5032978;28;20241;-70
2022/12/27 01:44:48;;;;;;;3.17;1.00;;;4.50;99.90;;;;;;5033607;28;20204;-70
2022/12/27 01:47:28;;;;;;;2.73;1.23;;;4.50;99.90;;;;;;5033234;28;20421;-70
2022/12/27 01:50:32;;;;;;;2.60;1.03;;;4.40;99.90;;;;;;5032966;28;20431;-70
2022/12/27 01:53:06;;;;;;;1.40;1.30;;;4.40;99.90;;;;;;5033255;28;20540;-72
2022/12/27 01:55:37;;;;;;;2.07;1.57;;;4.40;99.90;;;;;;5033056;28;20904;-72
2022/12/27 01:58:18;;;;;;;2.80;1.27;;;4.40;99.90;;;;;;5032929;28;20526;-72
2022/12/27 02:00:47;;;;;;;2.37;1.03;;;4.40;99.90;;;;;;5032937;28;20428;-72
2022/12/27 02:03:38;;;;;;;1.60;1.07;;;4.30;99.90;;;;;;5032805;28;20433;-72
2022/12/27 02:06:05;;;;;;;3.57;1.20;;;4.20;99.90;;;;;;5032881;28;20421;-72
2022/12/27 02:08:52;;;;;;;3.23;1.27;;;4.20;99.90;;;;;;5032461;28;20432;-72
2022/12/27 02:11:49;;;;;;;2.67;1.17;;;4.10;99.90;;;;;;5032608;28;20474;-72
2022/12/27 02:14:10;;;;;;;1.37;0.90;;;4.10;99.90;;;;;;5032557;28;20432;-72
2022/12/27 02:16:36;;;;;;;1.60;1.23;;;4.00;99.90;;;;;;5032650;28;20416;-72
2022/12/27 02:19:09;;;;;;;1.10;1.00;;;4.00;99.90;;;;;;5032323;28;20417;-72
2022/12/27 02:21:54;;;;;;;3.33;1.33;;;4.00;99.90;;;;;;5032670;28;20235;-70
2022/12/27 02:24:43;;;;;;;5.43;1.30;;;3.90;99.90;;;;;;5032596;28;20439;-72
2022/12/27 02:27:11;;;;;;;1.03;0.90;;;3.90;99.90;;;;;;5032532;28;20412;-72
2022/12/27 02:29:49;;;;;;;5.23;1.80;;;3.80;99.90;;;;;;5032080;28;20457;-72
2022/12/27 02:32:53;;;;;;;1.37;0.80;;;3.80;99.90;;;;;;5032253;28;20540;-72
2022/12/27 02:35:32;;;;;;;2.80;1.33;;;3.70;99.90;;;;;;5014937;28;20425;-72
2022/12/27 02:38:04;;;;;;;3.00;1.10;;;3.70;99.90;;;;;;5032281;28;20452;-72
2022/12/27 02:58:54;;;;;;;2.60;1.10;;;3.60;99.90;;;;;;5033923;28;20475;-72
2022/12/27 03:04:40;;;;;;;1.10;1.00;;;3.50;99.90;;;;;;5031987;28;20412;-72
2022/12/27 03:07:25;;;;;;;2.30;1.20;;;3.50;99.90;;;;;;5032084;28;20447;-72
2022/12/27 03:16:33;;;;;;;3.70;1.33;;;3.40;99.90;;;;;;5032013;28;20409;-72
2022/12/27 03:27:35;;;;;;;2.10;1.27;;;3.40;99.90;;;;;;5031788;28;20482;-71
2022/12/27 03:33:12;;;;;;;2.23;1.43;;;3.40;99.90;;;;;;5032089;28;20511;-72
2022/12/27 03:38:01;;;;;;;4.10;1.23;;;3.40;99.90;;;;;;5031816;28;20550;-72
2022/12/27 03:38:45;;;;;;;1.40;1.30;;;3.40;99.90;;;;;;5031090;28;20472;-72
2022/12/27 03:43:58;;;;;;;6.60;1.97;;;3.40;99.90;;;;;;5031951;28;20451;-72
2022/12/27 03:46:32;;;;;;;4.03;1.33;;;3.30;99.90;;;;;;5031591;28;20787;-71
2022/12/27 03:49:25;;;;;;;1.93;1.23;;;3.30;99.90;;;;;;5031277;28;20166;-72
2022/12/27 03:52:31;;;;;;;1.80;1.37;;;3.30;99.90;;;;;;5031566;28;20409;-72
2022/12/27 03:54:58;;;;;;;2.90;1.70;;;3.30;99.90;;;;;;4977104;28;20862;-72
2022/12/27 03:57:25;;;;;;;1.77;1.20;;;3.30;99.90;;;;;;5031408;28;20459;-71
2022/12/27 03:59:51;;;;;;;4.23;2.03;;;3.20;99.90;;;;;;5031255;28;20431;-72
2022/12/27 04:02:17;;;;;;;2.90;1.53;;;3.20;99.90;;;;;;5031422;28;21001;-72
2022/12/27 04:04:43;;;;;;;1.83;1.67;;;3.20;99.90;;;;;;5032167;28;20416;-72
2022/12/27 04:07:12;;;;;;;1.43;1.33;;;3.20;99.90;;;;;;5035143;28;21100;-71
2022/12/27 04:36:58;;;;;;;1.70;1.50;;;2.90;99.90;;;;;;5034538;28;20522;-72
2022/12/27 04:39:24;;;;;;;3.00;2.07;;;2.90;99.90;;;;;;5033912;28;20413;-71
2022/12/27 04:55:57;;;;;;;3.03;2.00;;;3.00;99.90;;;;;;5034453;28;20535;-72
2022/12/27 04:58:23;;;;;;;3.73;1.70;;;3.00;99.90;;;;;;5033872;28;20918;-72
2022/12/27 05:03:33;;;;;;;1.60;1.50;;;3.00;99.90;;;;;;5034004;28;20463;-72
2022/12/27 05:05:59;;;;;;;1.63;1.53;;;3.00;99.90;;;;;;5034037;28;20413;-71
2022/12/27 05:14:00;;;;;;;2.30;2.10;;;2.90;99.90;;;;;;5033910;28;20506;-71
2022/12/27 05:16:31;;;;;;;2.80;1.67;;;2.90;99.90;;;;;;5033557;28;20918;-71
2022/12/27 05:18:57;;;;;;;3.10;1.90;;;2.80;99.90;;;;;;5033567;28;20463;-71
2022/12/27 05:21:23;;;;;;;2.17;1.53;;;2.90;99.90;;;;;;5033741;28;20421;-71
2022/12/27 05:26:34;;;;;;;3.03;1.97;;;2.80;99.90;;;;;;5033934;28;20432;-72
2022/12/27 05:29:00;;;;;;;3.03;2.40;;;2.80;99.90;;;;;;5033306;28;20425;-71
2022/12/27 05:31:27;;;;;;;2.30;2.10;;;2.70;99.90;;;;;;5033478;28;20417;-71
2022/12/27 05:33:53;;;;;;;1.87;1.60;;;2.80;99.90;;;;;;5033398;28;20425;-71
2022/12/27 05:36:19;;;;;;;4.10;2.30;;;2.80;99.90;;;;;;5033443;28;20424;-71
2022/12/27 05:38:46;;;;;;;1.67;1.57;;;2.80;99.90;;;;;;5032935;28;20471;-71
2022/12/27 05:41:12;;;;;;;4.53;1.87;;;2.80;99.90;;;;;;5033383;28;20424;-71
2022/12/27 05:43:37;;;;;;;4.10;1.83;;;2.80;99.90;;;;;;5033102;28;20445;-71
2022/12/27 05:46:09;;;;;;;2.13;1.80;;;2.70;99.90;;;;;;5033330;28;20410;-71
2022/12/27 05:48:35;;;;;;;5.47;2.00;;;2.70;99.90;;;;;;5032949;28;20665;-71
2022/12/27 05:51:05;;;;;;;2.40;2.20;;;2.70;99.90;;;;;;5033217;28;20448;-71
2022/12/27 05:53:31;;;;;;;2.03;1.83;;;2.70;99.90;;;;;;5033071;28;20437;-71
2022/12/27 05:55:57;;;;;;;7.63;2.10;;;2.70;99.90;;;;;;5033071;28;20482;-71
2022/12/27 05:58:24;;;;;;;2.10;1.90;;;2.70;99.90;;;;;;5032562;28;20197;-71
2022/12/27 06:00:50;;;;;;;2.53;1.83;;;2.70;99.90;;;;;;5033040;28;20421;-71
2022/12/27 06:03:15;;;;;;;1.97;1.80;;;2.70;99.90;;;;;;5032637;28;20429;-71
2022/12/27 06:05:41;;;;;;;3.90;1.90;;;2.70;99.90;;;;;;5032709;28;20198;-71
2022/12/27 06:08:07;;;;;;;2.83;1.93;;;2.70;99.90;;;;;;5032684;28;20174;-71
2022/12/27 06:10:33;;;;;;;2.80;2.30;;;2.60;99.90;;;;;;5032287;28;20229;-71
2022/12/27 06:12:59;;;;;;;2.30;2.10;;;2.70;99.90;;;;;;5032818;28;20957;-71
2022/12/27 06:15:25;;;;;;;2.77;1.97;;;2.60;99.90;;;;;;5032485;28;20232;-71
2022/12/27 06:17:50;;;;;;;4.07;2.53;;;2.60;99.90;;;;;;5032343;28;20971;-70
2022/12/27 06:20:16;;;;;;;4.33;2.17;;;2.60;99.90;;;;;;5032161;28;20162;-71
2022/12/27 06:22:42;;;;;;;2.40;1.93;;;2.60;99.90;;;;;;5032283;28;20201;-71
2022/12/27 06:25:07;;;;;;;4.00;2.03;;;2.60;99.90;;;;;;5032348;28;20558;-70
2022/12/27 06:27:33;;;;;;;2.73;2.47;;;2.50;99.90;;;;;;5031608;28;20175;-71
2022/12/27 06:29:59;;;;;;;4.33;2.70;;;2.50;99.90;;;;;;5031974;28;20166;-71
2022/12/27 06:32:24;;;;;;;4.50;3.00;;;2.50;99.90;;;;;;5032102;28;20194;-71
2022/12/27 06:34:50;;;;;;;3.33;2.43;;;2.50;99.90;;;;;;5032139;28;20214;-70
2022/12/27 06:37:16;;;;;;;2.67;2.30;;;2.40;99.90;;;;;;5032069;28;20281;-71
2022/12/27 06:39:42;;;;;;;2.73;2.53;;;2.40;99.90;;;;;;5031834;28;20251;-70
2022/12/27 06:42:08;;;;;;;3.37;2.20;;;2.40;99.90;;;;;;5014202;28;20488;-71
2022/12/27 06:44:33;;;;;;;3.00;2.20;;;2.40;99.90;;;;;;5031962;28;20197;-71
2022/12/27 06:46:59;;;;;;;2.50;2.30;;;2.30;99.90;;;;;;5031966;28;20178;-70
2022/12/27 06:49:24;;;;;;;4.87;2.90;;;2.30;99.90;;;;;;5031720;28;20182;-71
2022/12/27 06:51:50;;;;;;;3.40;2.47;;;2.30;99.90;;;;;;5031829;28;20570;-71
2022/12/27 06:54:16;;;;;;;5.60;3.23;;;2.30;99.90;;;;;;5031868;28;20186;-70
2022/12/27 06:56:41;;;;;;;3.70;2.23;;;2.30;99.90;;;;;;5031672;28;20176;-71
2022/12/27 06:59:07;;;;;;;2.97;2.53;;;2.30;99.90;;;;;;5031678;28;20167;-71
2022/12/27 07:01:32;;;;;;;2.60;2.40;;;2.20;99.90;;;;;;5032054;28;20651;-71
2022/12/27 07:03:59;;;;;;;3.90;2.03;;;2.20;99.90;;;;;;5031978;28;20198;-70
2022/12/27 07:06:27;;;;;;;5.10;2.10;;;2.20;99.90;;;;;;5031980;28;20232;-71
2022/12/27 07:08:53;;;;;;;2.77;2.20;;;2.20;99.90;;;;;;5031626;28;20915;-71
2022/12/27 07:11:20;;;;;;;5.23;2.23;;;2.20;99.90;;;;;;5031754;28;20428;-71
2022/12/27 07:13:48;;;;;;;2.50;2.30;;;2.30;99.90;;;;;;5031896;28;20863;-72
2022/12/27 07:16:15;;;;;;;2.50;1.83;;;2.30;99.90;;;;;;5031897;28;20417;-71
2022/12/27 07:18:42;;;;;;;6.80;1.93;;;2.30;99.90;;;;;;5031496;28;20465;-71
2022/12/27 07:21:10;;;;;;;2.53;2.33;;;2.30;99.90;;;;;;5031899;28;20444;-70
2022/12/27 07:23:36;;;;;;;3.10;2.33;;;2.30;99.90;;;;;;5031683;28;20452;-70
2022/12/27 07:26:07;;;;;;;3.27;2.67;;;2.30;99.90;;;;;;5031882;28;20855;-70
2022/12/27 07:28:33;;;;;;;3.53;3.00;;;2.30;99.90;;;;;;5031511;28;20408;-71
2022/12/27 07:30:58;;;;;;;5.33;3.00;;;2.40;99.90;;;;;;5014055;28;20483;-70
2022/12/27 07:33:24;;;;;;;3.20;1.70;;;2.40;99.90;;;;;;5031669;28;20198;-70
2022/12/27 07:36:00;;;;;;;4.07;1.90;;;2.40;99.90;;;;;;5031683;28;20460;-70
2022/12/27 07:38:26;;;;;;;4.83;2.00;;;2.50;99.90;;;;;;5031640;28;20229;-71
2022/12/27 07:40:51;;;;;;;2.50;1.77;;;2.50;99.90;;;;;;5035626;28;20428;-71
2022/12/27 07:43:17;;;;;;;3.70;2.37;;;2.60;99.90;;;;;;5035518;28;20439;-70
2022/12/27 07:45:43;;;;;;;2.53;2.10;;;2.70;99.90;;;;;;5035560;28;20171;-71
2022/12/27 07:48:08;;;;;;;2.93;2.73;;;2.80;99.90;;;;;;5035373;28;20174;-71
2022/12/27 07:50:34;;;;;;;5.20;1.97;;;2.90;99.90;;;;;;5035189;28;20261;-71
2022/12/27 07:52:59;;;;;;;2.43;1.83;;;3.10;99.90;;;;;;5035305;28;20202;-71
2022/12/27 07:55:25;;;;;;;2.10;1.90;;;3.70;99.90;;;;;;5035304;28;20540;-71
2022/12/27 07:57:50;;;;;;;5.20;2.57;;;4.20;99.90;;;;;;5035429;28;20209;-71
2022/12/27 08:00:16;;;;;;;2.50;1.87;;;4.80;99.90;;;;;;5035070;28;20189;-71
2022/12/27 08:02:42;;;;;;;2.47;1.90;;;5.30;99.90;;;;;;5035193;28;20183;-71
2022/12/27 08:05:08;;;;;;;2.10;1.50;;;5.90;99.90;;;;;;5035199;28;20202;-71
2022/12/27 08:07:34;;;;;;;5.90;2.00;;;6.50;99.90;;;;;;5034886;28;20452;-71
2022/12/27 08:10:00;;;;;;;13.23;4.60;;;6.90;99.90;;;;;;5034775;28;20427;-71
2022/12/27 08:12:25;;;;;;;3.70;2.10;;;7.50;99.90;;;;;;5034853;28;20839;-71
2022/12/27 08:14:51;;;;;;;6.30;2.33;;;8.00;99.90;;;;;;5034959;28;20181;-69
2022/12/27 08:17:22;;;;;;;2.00;1.40;;;8.80;99.90;;;;;;5034807;28;20197;-70
2022/12/27 08:19:50;;;;;;;1.40;1.30;;;8.90;99.90;;;;;;5034533;28;20209;-70
2022/12/27 08:22:16;;;;;;;5.23;1.80;;;9.30;99.90;;;;;;5034790;28;20845;-70
2022/12/27 08:24:42;;;;;;;1.83;1.73;;;9.40;99.90;;;;;;5034735;28;20401;-69
2022/12/27 08:27:09;;;;;;;3.77;1.70;;;9.80;99.90;;;;;;5034762;28;20224;-69
2022/12/27 08:29:35;;;;;;;2.20;1.47;;;10.70;99.90;;;;;;5034420;28;20914;-69
2022/12/27 08:32:00;;;;;;;2.10;1.80;;;11.60;99.90;;;;;;5034617;28;20441;-69
2022/12/27 08:34:26;;;;;;;4.30;1.70;;;11.60;99.90;;;;;;5034624;28;20429;-69
2022/12/27 08:36:52;;;;;;;2.83;2.30;;;12.10;99.90;;;;;;5034485;28;20198;-69
2022/12/27 08:39:17;;;;;;;3.13;1.77;;;13.00;99.90;;;;;;5034247;28;20659;-69
2022/12/27 08:41:43;;;;;;;2.07;1.60;;;13.90;99.90;;;;;;5034470;28;20170;-69
2022/12/27 08:44:09;;;;;;;2.80;1.80;;;13.70;99.90;;;;;;5034459;28;20171;-69
2022/12/27 08:46:35;;;;;;;3.07;1.70;;;13.90;99.90;;;;;;5034378;28;20212;-69
2022/12/27 08:49:00;;;;;;;2.80;1.30;;;14.60;99.90;;;;;;5016240;28;20428;-68
2022/12/27 08:51:26;;;;;;;2.97;1.70;;;15.10;99.90;;;;;;5033564;28;20721;-69
2022/12/27 08:53:52;;;;;;;2.27;2.07;;;15.80;99.20;;;;;;5034196;28;20202;-69
2022/12/27 08:56:17;;;;;;;3.23;1.73;;;16.30;94.20;;;;;;5034403;28;20945;-69
2022/12/27 08:58:43;;;;;;;1.60;1.50;;;16.20;94.50;;;;;;5033960;28;20194;-69
2022/12/27 09:01:09;;;;;;;5.60;2.20;;;15.60;94.40;;;;;;5034286;28;20675;-69
2022/12/27 09:03:35;;;;;;;2.83;2.07;;;15.80;95.00;;;;;;5033958;28;20714;-70
2022/12/27 09:06:16;;;;;;;2.03;1.83;;;16.80;93.80;;;;;;5034051;28;20413;-69
2022/12/27 09:08:43;;;;;;;6.23;2.37;;;15.80;92.90;;;;;;5033685;28;20181;-69
2022/12/27 09:11:17;;;;;;;2.23;2.07;;;16.00;94.80;;;;;;5033900;28;20421;-69
2022/12/27 09:13:43;;;;;;;3.30;2.17;;;16.90;92.10;;;;;;5033871;28;20436;-69
2022/12/27 09:16:12;;;;;;;3.90;1.90;;;15.50;93.30;;;;;;5033809;28;20914;-69
2022/12/27 09:18:38;;;;;;;3.10;2.10;;;15.00;93.90;;;;;;5033383;28;20977;-69
2022/12/27 09:21:09;;;;;;;4.30;3.60;;;14.50;95.90;;;;;;5033795;28;20409;-69
2022/12/27 09:23:36;;;;;;;1.90;1.80;;;14.10;98.30;;;;;;5033635;28;20437;-69
2022/12/27 09:26:08;;;;;;;7.60;3.63;;;14.10;97.60;;;;;;5033658;28;20417;-69
2022/12/27 09:28:35;;;;;;;3.60;2.80;;;14.20;99.80;;;;;;5033370;28;20829;-69
2022/12/27 09:31:00;;;;;;;2.77;2.50;;;15.10;96.20;;;;;;5033599;28;20459;-69
2022/12/27 09:33:27;;;;;;;6.37;3.10;;;15.20;96.30;;;;;;5033401;28;20444;-69
2022/12/27 09:35:53;;;;;;;4.80;2.10;;;15.30;96.30;;;;;;5033467;28;20640;-69
2022/12/27 09:38:18;;;;;;;2.50;1.70;;;15.00;95.50;;;;;;5033036;28;20463;-69
2022/12/27 09:40:55;;;;;;;2.23;1.60;;;14.80;95.50;;;;;;5033708;28;20191;-69
2022/12/27 09:43:37;;;;;;;2.47;1.90;;;14.00;97.20;;;;;;5033231;28;20189;-69
2022/12/27 09:46:07;;;;;;;2.60;2.40;;;13.00;99.90;;;;;;5033323;28;20428;-68
2022/12/27 09:48:38;;;;;;;4.97;2.40;;;12.20;99.90;;;;;;5032814;28;20421;-69
2022/12/27 09:51:31;;;;;;;3.33;2.83;;;12.10;99.90;;;;;;5033153;28;20929;-71
2022/12/27 09:54:52;;;;;;;4.53;2.20;;;12.20;99.90;;;;;;5033019;28;20441;-70
2022/12/27 09:57:25;;;;;;;7.30;2.43;;;13.20;99.90;;;;;;5025753;28;20554;-71
2022/12/27 10:00:04;;;;;;;3.00;1.90;;;13.20;99.90;;;;;;5032736;28;20783;-70
2022/12/27 10:02:32;;;;;;;3.40;2.47;;;13.60;99.90;;;;;;5031948;28;20967;-70
2022/12/27 10:04:58;;;;;;;5.63;1.90;;;13.70;99.90;;;;;;5033092;28;20566;-70
2022/12/27 10:07:32;;;;;;;5.30;1.90;;;13.40;99.90;;;;;;5032977;28;20794;-70
2022/12/27 10:10:01;;;;;;;4.43;2.97;;;13.40;99.90;;;;;;5032620;28;20421;-70
2022/12/27 10:12:44;;;;;;;2.53;1.97;;;13.70;99.90;;;;;;5032059;28;20958;-70
2022/12/27 10:15:45;;;;;;;5.60;2.20;;;14.10;99.90;;;;;;5032756;28;20938;-70
2022/12/27 10:18:53;;;;;;;4.10;2.80;;;14.70;99.00;;;;;;5017675;28;20551;-70
2022/12/27 10:21:24;;;;;;;2.60;2.40;;;16.80;94.40;;;;;;5032655;28;20431;-70
2022/12/27 10:24:04;;;;;;;3.10;2.10;;;17.60;91.80;;;;;;5032507;28;20467;-71
2022/12/27 10:26:29;;;;;;;2.03;1.80;;;18.40;87.30;;;;;;5032605;28;20445;-71
2022/12/27 10:29:16;;;;;;;2.60;2.40;;;19.60;83.90;;;;;;5032199;28;20417;-71
2022/12/27 10:31:42;;;;;;;2.60;2.40;;;19.50;77.50;;;;;;5032428;28;20170;-70
2022/12/27 10:34:12;;;;;;;2.97;2.67;;;19.50;75.50;;;;;;5032387;28;20412;-71
2022/12/27 10:36:40;;;;;;;2.77;1.97;;;18.70;77.90;;;;;;5032369;28;20475;-70
2022/12/27 10:39:17;;;;;;;3.67;2.90;;;18.70;77.60;;;;;;5031962;28;20460;-71
2022/12/27 10:42:01;;;;;;;1.90;1.80;;;17.90;77.60;;;;;;5032263;28;20427;-70
2022/12/27 10:44:28;;;;;;;3.10;2.00;;;17.40;79.70;;;;;;5032272;28;20784;-71
2022/12/27 10:46:54;;;;;;;1.93;1.50;;;17.30;79.80;;;;;;5032145;28;20421;-70
2022/12/27 10:49:29;;;;;;;3.17;1.97;;;15.80;82.50;;;;;;5031797;28;20440;-71
2022/12/27 10:52:16;;;;;;;3.47;1.90;;;15.40;87.10;;;;;;5032085;28;20427;-70
2022/12/27 10:54:54;;;;;;;5.10;2.53;;;15.40;85.50;;;;;;5032246;28;20412;-70
2022/12/27 10:57:33;;;;;;;2.80;1.93;;;15.60;86.80;;;;;;5032102;28;20543;-70
2022/12/27 11:00:16;;;;;;;2.07;1.87;;;16.40;85.40;;;;;;5031844;28;20428;-71
2022/12/27 11:02:56;;;;;;;2.67;1.87;;;17.40;81.10;;;;;;5031892;28;20435;-71
2022/12/27 11:05:27;;;;;;;2.07;1.83;;;17.40;82.20;;;;;;5032055;28;20417;-71
2022/12/27 11:07:53;;;;;;;3.03;2.20;;;16.10;85.10;;;;;;5031923;28;20428;-71
2022/12/27 11:10:23;;;;;;;3.33;2.03;;;15.70;88.10;;;;;;5031593;28;20422;-71
2022/12/27 11:13:01;;;;;;;4.20;2.47;;;16.50;88.50;;;;;;5031256;28;20452;-70
2022/12/27 11:15:30;;;;;;;2.20;2.00;;;16.60;85.30;;;;;;5035719;28;20421;-70
2022/12/27 11:17:58;;;;;;;1.97;1.67;;;16.90;86.10;;;;;;5035800;28;20452;-71
2022/12/27 11:20:32;;;;;;;1.63;1.53;;;16.00;85.80;;;;;;5035752;28;20475;-70
2022/12/27 11:23:02;;;;;;;2.83;1.67;;;16.10;88.00;;;;;;5035998;28;20452;-70
2022/12/27 11:25:29;;;;;;;2.97;1.50;;;16.30;84.60;;;;;;5035895;28;20777;-70
2022/12/27 11:28:18;;;;;;;1.87;1.43;;;15.10;87.90;;;;;;5035868;28;20833;-70
2022/12/27 11:30:56;;;;;;;2.10;1.40;;;13.70;91.80;;;;;;5035796;28;20899;-70
2022/12/27 11:33:44;;;;;;;1.60;1.50;;;12.80;96.30;;;;;;5035746;28;20523;-71
2022/12/27 11:36:11;;;;;;;4.63;1.93;;;13.20;97.20;;;;;;5035725;28;20834;-70
2022/12/27 11:38:38;;;;;;;5.10;2.60;;;13.40;95.90;;;;;;5035208;28;20453;-70
2022/12/27 11:41:36;;;;;;;5.10;1.63;;;13.80;95.00;;;;;;5035603;28;20409;-70
2022/12/27 11:44:16;;;;;;;2.90;1.80;;;13.80;94.70;;;;;;5035772;28;20412;-70
2022/12/27 11:46:49;;;;;;;2.50;1.57;;;13.90;96.10;;;;;;5035524;28;20420;-71
2022/12/27 11:49:21;;;;;;;4.40;2.00;;;14.80;92.90;;;;;;5035019;28;20520;-70
2022/12/27 11:52:14;;;;;;;2.60;2.40;;;15.00;91.50;;;;;;5035251;28;20416;-70
2022/12/27 11:54:57;;;;;;;3.73;1.63;;;15.30;91.60;;;;;;5035274;28;20440;-70
2022/12/27 11:57:46;;;;;;;2.23;1.50;;;15.10;93.00;;;;;;5035232;28;20502;-70
2022/12/27 12:00:22;;;;;;;3.47;1.70;;;15.30;91.30;;;;;;5019928;28;20432;-70
2022/12/27 12:03:20;;;;;;;2.00;1.60;;;15.40;91.10;;;;;;5035173;28;20433;-70
2022/12/27 12:06:29;;;;;;;1.70;1.60;;;15.50;90.50;;;;;;4980410;28;20463;-70
2022/12/27 12:09:12;;;;;;;4.87;3.20;;;13.60;93.80;;;;;;5029759;28;20486;-70
2022/12/27 12:11:59;;;;;;;5.97;4.47;;;12.60;98.30;;;;;;5034624;28;20447;-69
2022/12/27 12:14:34;;;;;;;3.77;2.67;;;12.20;99.90;;;;;;5035442;28;20456;-71
2022/12/27 12:17:14;;;;;;;4.10;1.90;;;12.30;99.90;;;;;;5034948;28;20495;-71
2022/12/27 12:19:46;;;;;;;5.57;2.43;;;12.30;99.90;;;;;;5034681;28;20417;-71
2022/12/27 12:22:36;;;;;;;3.97;2.47;;;12.10;99.90;;;;;;5034772;28;20436;-71
2022/12/27 12:25:05;;;;;;;3.93;2.20;;;11.90;99.90;;;;;;5034061;28;20504;-71
2022/12/27 12:28:08;;;;;;;3.97;1.70;;;11.70;99.90;;;;;;5034614;28;20417;-71
2022/12/27 12:31:25;;;;;;;5.53;3.60;;;12.20;99.90;;;;;;5034458;28;20914;-71
2022/12/27 12:34:25;;;;;;;1.70;1.40;;;13.40;99.90;;;;;;4992659;28;20452;-71
2022/12/27 12:37:08;;;;;;;4.30;2.50;;;14.20;97.80;;;;;;5034600;28;20492;-71
2022/12/27 12:39:55;;;;;;;3.03;2.13;;;14.70;96.40;;;;;;5034262;28;20792;-71
2022/12/27 12:42:46;;;;;;;4.73;1.90;;;15.30;95.50;;;;;;5034446;28;20898;-71
2022/12/27 12:45:22;;;;;;;3.97;1.97;;;15.70;94.40;;;;;;5034380;28;20444;-71
2022/12/27 12:48:19;;;;;;;5.13;2.13;;;16.60;92.00;;;;;;5034413;28;20490;-71
2022/12/27 12:51:00;;;;;;;3.30;2.30;;;16.80;90.40;;;;;;5034328;28;20420;-71
2022/12/27 12:53:58;;;;;;;3.90;2.23;;;16.50;90.90;;;;;;5034181;28;20428;-71
2022/12/27 12:56:53;;;;;;;4.77;3.30;;;16.20;90.60;;;;;;5034319;28;20479;-71
2022/12/27 12:59:33;;;;;;;3.13;2.00;;;15.40;92.50;;;;;;5033851;28;20429;-71
2022/12/27 13:02:26;;;;;;;3.10;1.90;;;15.40;93.10;;;;;;5034122;28;20437;-71
2022/12/27 13:05:13;;;;;;;5.87;2.53;;;16.00;91.10;;;;;;5034329;28;20459;-71
2022/12/27 13:08:16;;;;;;;2.00;1.60;;;16.00;91.60;;;;;;5034285;28;20417;-71
2022/12/27 13:11:00;;;;;;;2.30;2.10;;;15.50;92.20;;;;;;5034016;28;20412;-71
2022/12/27 13:14:04;;;;;;;2.40;1.80;;;16.30;90.00;;;;;;5033264;28;20547;-71
2022/12/27 13:16:49;;;;;;;2.30;2.10;;;16.40;89.20;;;;;;5029129;28;20778;-71
2022/12/27 13:19:54;;;;;;;4.53;2.37;;;15.80;90.60;;;;;;5033452;28;20456;-71
2022/12/27 13:22:22;;;;;;;2.83;2.07;;;14.90;92.70;;;;;;5033622;28;20432;-71
2022/12/27 13:25:22;;;;;;;5.77;2.73;;;13.80;95.60;;;;;;5033633;28;20412;-71
2022/12/27 13:28:16;;;;;;;2.27;2.07;;;12.60;99.90;;;;;;5033616;28;20425;-71
2022/12/27 13:31:00;;;;;;;6.60;3.17;;;12.40;99.90;;;;;;5015960;28;20423;-71
2022/12/27 13:33:50;;;;;;;3.73;2.33;;;12.00;99.90;;;;;;5033382;28;20528;-71
2022/12/27 13:36:33;;;;;;;3.60;1.90;;;11.70;99.90;;;;;;5033265;28;20417;-71
2022/12/27 13:39:36;;;;;;;5.17;2.77;;;11.50;99.90;;;;;;5033036;28;20487;-71
2022/12/27 13:42:23;;;;;;;6.17;3.57;;;11.20;99.90;;;;;;5033293;28;20428;-71
2022/12/27 13:45:16;;;;;;;3.33;1.87;;;11.30;99.90;;;;;;5017248;28;20474;-71
2022/12/27 13:48:00;;;;;;;4.00;1.53;;;11.30;99.90;;;;;;5033487;28;20420;-71
2022/12/27 13:50:54;;;;;;;3.30;1.40;;;11.00;99.90;;;;;;5033014;28;20468;-71
2022/12/27 13:53:44;;;;;;;4.43;1.60;;;10.30;99.90;;;;;;5033089;28;20429;-71
2022/12/27 13:56:33;;;;;;;2.90;1.63;;;10.00;99.90;;;;;;5033137;28;20835;-71
2022/12/27 13:59:35;;;;;;;3.80;2.20;;;9.90;99.90;;;;;;5032688;28;20475;-71
2022/12/27 14:02:20;;;;;;;4.13;3.10;;;9.70;99.90;;;;;;5032886;28;20536;-71
2022/12/27 14:04:55;;;;;;;3.43;2.33;;;9.40;99.90;;;;;;5032971;28;20405;-71
2022/12/27 14:07:41;;;;;;;8.73;3.30;;;9.20;99.90;;;;;;5032902;28;20905;-71
2022/12/27 14:10:10;;;;;;;2.93;1.57;;;9.10;99.90;;;;;;5032449;28;20413;-71
2022/12/27 14:12:56;;;;;;;3.43;1.77;;;9.00;99.90;;;;;;5032338;28;20464;-71
2022/12/27 14:15:44;;;;;;;9.00;6.23;;;8.80;99.90;;;;;;5032801;28;20421;-71
2022/12/27 14:19:02;;;;;;;4.63;3.50;;;8.70;99.90;;;;;;5032495;28;20851;-70
2022/12/27 14:22:10;;;;;;;4.83;1.70;;;8.60;99.90;;;;;;4933047;29;20432;-71
2022/12/27 14:24:54;;;;;;;4.27;1.70;;;8.50;99.90;;;;;;4933085;29;20488;-71
2022/12/27 14:27:35;;;;;;;3.73;1.80;;;8.40;99.90;;;;;;5019847;28;20519;-71
2022/12/27 14:30:03;;;;;;;7.60;4.67;;;8.40;99.90;;;;;;5032212;28;21074;-71
2022/12/27 14:33:05;;;;;;;5.27;2.40;;;8.30;99.90;;;;;;5014547;28;20437;-71
2022/12/27 14:35:55;;;;;;;7.30;1.47;;;8.20;99.90;;;;;;5032600;28;20408;-71
2022/12/27 14:38:57;;;;;;;1.87;1.77;;;8.10;99.90;;;;;;5032064;28;20484;-71
2022/12/27 14:42:02;;;;;;;5.53;2.70;;;8.00;99.90;;;;;;5032234;28;20769;-71
2022/12/27 14:44:59;;;;;;;5.33;2.20;;;7.90;99.90;;;;;;5032288;28;20400;-71
2022/12/27 14:47:46;;;;;;;2.30;1.53;;;7.90;99.90;;;;;;5032251;28;20412;-71
2022/12/27 14:51:01;;;;;;;2.03;1.30;;;7.70;99.90;;;;;;5031541;28;20518;-71
2022/12/27 14:53:39;;;;;;;8.47;3.00;;;7.70;99.90;;;;;;5022680;28;20945;-71
2022/12/27 14:56:35;;;;;;;3.40;1.40;;;7.60;99.90;;;;;;5032114;28;20807;-71
2022/12/27 14:59:19;;;;;;;2.70;1.40;;;7.60;99.90;;;;;;5031759;28;20464;-71
2022/12/27 15:02:03;;;;;;;5.30;1.73;;;7.50;99.90;;;;;;5031909;28;20416;-71
2022/12/27 15:04:47;;;;;;;4.33;2.43;;;7.40;99.90;;;;;;5032021;28;20405;-71
2022/12/27 15:07:20;;;;;;;1.90;1.43;;;7.30;99.90;;;;;;5032178;28;20478;-71
2022/12/27 15:10:07;;;;;;;1.67;1.50;;;7.30;99.90;;;;;;5031677;28;20914;-71
2022/12/27 15:13:01;;;;;;;5.60;1.50;;;7.20;99.90;;;;;;5013751;28;20522;-71